Time;durP1;ratioP1;P1;durP2;ratioP2;P2;SDS_P1;SDS_P2;PMS_P1;PMS_P2;Temp;Humidity;BMP_temperature;BMP_pressure;BME280_temperature;BME280_humidity;BME280_pressure;Samples;Min_cycle;Max_cycle;Signal;HPM_P1;HPM_P2
2023/10/19 00:01:19;;;;;;;20.60;12.77;;;8.30;99.90;;;;;;4983932;28;20049;-81
2023/10/19 00:03:44;;;;;;;23.33;14.15;;;8.30;99.90;;;;;;4986087;28;20050;-82
2023/10/19 00:06:11;;;;;;;22.90;14.50;;;8.20;99.90;;;;;;4985757;28;20048;-81
2023/10/19 00:08:41;;;;;;;22.05;14.70;;;8.30;99.90;;;;;;4966026;28;20081;-81
2023/10/19 00:11:08;;;;;;;22.33;14.05;;;8.20;99.90;;;;;;4969988;28;20133;-81
2023/10/19 00:13:38;;;;;;;21.50;14.57;;;8.30;99.90;;;;;;4984367;28;20097;-81
2023/10/19 00:16:17;;;;;;;25.60;15.25;;;8.20;99.90;;;;;;4974225;28;20037;-82
2023/10/19 00:18:48;;;;;;;22.67;14.60;;;8.20;99.90;;;;;;4990808;28;20064;-83
2023/10/19 00:21:20;;;;;;;24.10;15.03;;;8.20;99.90;;;;;;4993496;28;20046;-82
2023/10/19 00:23:56;;;;;;;27.23;15.77;;;8.20;99.90;;;;;;4967969;28;20304;-83
2023/10/19 00:26:26;;;;;;;25.17;15.43;;;8.20;99.90;;;;;;4987522;28;20050;-81
2023/10/19 00:29:00;;;;;;;23.15;15.18;;;7.70;99.90;;;;;;4972218;28;20049;-80
2023/10/19 00:31:27;;;;;;;23.08;14.75;;;8.20;99.90;;;;;;4988703;28;20042;-82
2023/10/19 00:33:56;;;;;;;27.23;15.80;;;8.20;99.90;;;;;;4990870;28;20038;-82
2023/10/19 00:36:23;;;;;;;22.52;15.40;;;8.30;99.90;;;;;;4968697;28;20529;-82
2023/10/19 00:41:24;;;;;;;26.70;16.13;;;8.20;99.90;;;;;;4986470;28;20062;-82
2023/10/19 00:43:57;;;;;;;25.45;16.65;;;8.20;99.90;;;;;;4987039;28;20081;-81
2023/10/19 00:46:26;;;;;;;27.08;16.75;;;8.20;99.90;;;;;;4989319;28;20125;-83
2023/10/19 00:48:57;;;;;;;21.63;15.15;;;8.20;99.90;;;;;;4970135;28;20468;-82
2023/10/19 00:51:55;;;;;;;28.30;16.85;;;8.20;99.90;;;;;;4973538;28;20049;-83
2023/10/19 00:54:35;;;;;;;24.80;16.63;;;8.20;99.90;;;;;;4992384;28;20060;-82
2023/10/19 00:57:07;;;;;;;24.08;15.45;;;8.20;99.90;;;;;;5000379;28;20046;-82
2023/10/19 00:59:43;;;;;;;23.30;16.63;;;8.20;99.90;;;;;;4992159;28;20046;-82
2023/10/19 01:05:00;;;;;;;26.48;16.75;;;8.30;99.90;;;;;;4989706;28;20113;-82
2023/10/19 01:07:28;;;;;;;24.15;15.90;;;8.20;99.90;;;;;;4991419;28;20390;-79
2023/10/19 01:09:59;;;;;;;27.95;16.80;;;8.20;99.90;;;;;;4979816;28;20038;-80
2023/10/19 01:12:33;;;;;;;32.03;18.27;;;8.60;99.90;;;;;;4966348;28;20129;-81
2023/10/19 01:15:20;;;;;;;28.40;17.25;;;8.20;99.90;;;;;;4986944;28;20526;-80
2023/10/19 01:17:51;;;;;;;26.00;17.50;;;8.20;99.90;;;;;;4972526;28;20046;-81
2023/10/19 01:22:50;;;;;;;25.45;16.88;;;8.20;99.90;;;;;;4983368;28;20491;-82
2023/10/19 01:25:16;;;;;;;25.40;17.15;;;8.20;99.90;;;;;;4988265;28;20045;-84
2023/10/19 01:27:42;;;;;;;25.85;17.80;;;8.30;99.90;;;;;;4978848;28;20442;-84
2023/10/19 01:30:09;;;;;;;29.73;18.20;;;8.20;99.90;;;;;;4984686;28;20038;-83
2023/10/19 01:32:35;;;;;;;27.23;18.52;;;8.20;99.90;;;;;;4976850;28;20052;-83
2023/10/19 01:35:01;;;;;;;24.42;17.30;;;8.20;99.90;;;;;;4970147;28;20435;-84
2023/10/19 01:37:26;;;;;;;27.67;18.30;;;8.50;99.90;;;;;;4983008;28;20422;-83
2023/10/19 01:39:52;;;;;;;26.70;18.13;;;8.20;99.90;;;;;;4969365;28;20053;-83
2023/10/19 01:42:18;;;;;;;28.65;18.40;;;8.20;99.90;;;;;;4988504;28;20556;-83
2023/10/19 01:44:43;;;;;;;27.88;17.83;;;8.10;99.90;;;;;;4982871;28;20046;-83
2023/10/19 01:47:09;;;;;;;25.90;17.80;;;8.20;99.90;;;;;;4987768;28;20046;-83
2023/10/19 01:49:37;;;;;;;28.45;16.77;;;8.10;99.90;;;;;;4967900;28;20076;-83
2023/10/19 01:52:04;;;;;;;23.92;17.30;;;8.20;99.90;;;;;;4977385;28;20061;-83
2023/10/19 01:54:29;;;;;;;29.17;17.30;;;8.20;99.90;;;;;;4989488;28;20085;-82
2023/10/19 01:56:56;;;;;;;29.92;18.08;;;8.10;99.90;;;;;;4986643;28;20155;-81
2023/10/19 01:59:27;;;;;;;27.30;17.17;;;8.10;99.90;;;;;;4971484;28;20341;-82
2023/10/19 02:01:57;;;;;;;25.23;16.75;;;8.10;99.90;;;;;;4987684;28;20091;-86
2023/10/19 02:04:24;;;;;;;24.30;16.52;;;8.10;99.90;;;;;;4969301;28;20430;-86
2023/10/19 02:06:53;;;;;;;25.63;16.95;;;8.10;99.90;;;;;;4969689;28;20494;-83
2023/10/19 02:12:14;;;;;;;23.38;15.50;;;8.30;99.90;;;;;;4972873;28;20073;-84
2023/10/19 02:14:39;;;;;;;24.10;16.08;;;8.70;99.90;;;;;;4984635;28;20073;-83
2023/10/19 02:17:05;;;;;;;22.23;16.27;;;8.10;99.90;;;;;;4983555;28;20126;-82
2023/10/19 02:19:32;;;;;;;24.55;15.63;;;8.10;99.90;;;;;;4983078;28;20088;-85
2023/10/19 02:22:03;;;;;;;23.83;15.52;;;8.10;99.90;;;;;;4970556;28;20092;-84
2023/10/19 02:24:29;;;;;;;22.38;15.57;;;8.10;99.90;;;;;;4980436;28;20112;-86
2023/10/19 02:26:56;;;;;;;21.58;14.70;;;8.10;99.90;;;;;;4986402;28;20421;-84
2023/10/19 02:29:25;;;;;;;21.40;14.50;;;8.10;99.90;;;;;;4985130;28;20050;-86
2023/10/19 02:31:53;;;;;;;22.95;14.27;;;8.10;99.90;;;;;;4984378;28;20042;-86
2023/10/19 02:34:18;;;;;;;20.67;14.15;;;8.10;99.90;;;;;;4971047;28;20129;-82
2023/10/19 02:36:45;;;;;;;19.77;13.77;;;8.10;99.90;;;;;;4985377;28;20117;-81
2023/10/19 02:39:14;;;;;;;20.42;13.23;;;8.10;99.90;;;;;;4970292;28;20209;-81
2023/10/19 02:41:45;;;;;;;21.38;14.48;;;8.10;99.90;;;;;;4982998;28;20050;-79
2023/10/19 02:46:42;;;;;;;20.38;14.60;;;8.10;99.90;;;;;;4988024;28;20085;-81
2023/10/19 02:49:13;;;;;;;20.35;13.25;;;8.10;99.90;;;;;;4985095;28;20081;-82
2023/10/19 02:51:40;;;;;;;19.50;13.55;;;8.10;99.90;;;;;;4994839;28;20514;-83
2023/10/19 02:54:08;;;;;;;20.30;14.07;;;8.10;99.90;;;;;;4985961;28;20100;-82
2023/10/19 02:56:35;;;;;;;17.50;12.45;;;8.20;99.90;;;;;;4974115;28;20053;-81
2023/10/19 02:59:03;;;;;;;17.52;12.25;;;8.10;99.90;;;;;;4986997;28;20034;-82
2023/10/19 03:01:33;;;;;;;18.73;12.48;;;8.10;99.90;;;;;;4989765;28;20049;-78
2023/10/19 03:04:02;;;;;;;17.95;12.93;;;8.10;99.90;;;;;;4972041;28;20440;-80
2023/10/19 03:06:35;;;;;;;19.15;12.68;;;8.10;99.90;;;;;;4969992;28;20430;-80
2023/10/19 03:09:53;;;;;;;17.73;12.15;;;8.10;99.90;;;;;;4988874;28;20049;-79
2023/10/19 03:11:52;;;;;;;18.33;12.23;;;8.10;99.90;;;;;;4981493;28;20053;-81
2023/10/19 03:14:19;;;;;;;17.60;12.68;;;8.10;99.90;;;;;;4992070;28;20529;-81
2023/10/19 03:16:45;;;;;;;17.52;12.02;;;8.10;99.90;;;;;;4975180;28;20120;-80
2023/10/19 03:19:13;;;;;;;18.20;12.75;;;8.10;99.90;;;;;;4992091;28;20051;-80
2023/10/19 03:21:49;;;;;;;19.95;12.57;;;8.10;99.90;;;;;;4985775;28;20089;-78
2023/10/19 03:24:23;;;;;;;18.17;12.40;;;8.10;99.90;;;;;;4972764;28;20128;-78
2023/10/19 03:26:54;;;;;;;18.65;12.13;;;8.10;99.90;;;;;;4988774;28;20060;-78
2023/10/19 03:29:30;;;;;;;17.30;11.95;;;8.10;99.90;;;;;;4975034;28;20534;-79
2023/10/19 03:31:56;;;;;;;16.95;11.88;;;8.20;99.90;;;;;;4991195;28;20042;-81
2023/10/19 03:34:23;;;;;;;17.77;11.57;;;8.10;99.90;;;;;;4969542;28;20095;-82
2023/10/19 03:36:54;;;;;;;17.60;12.40;;;8.10;99.90;;;;;;4974490;28;20084;-81
2023/10/19 03:39:21;;;;;;;17.33;11.80;;;8.70;99.90;;;;;;4975013;28;20227;-83
2023/10/19 03:41:49;;;;;;;16.83;11.70;;;8.10;99.90;;;;;;4974989;28;20049;-82
2023/10/19 03:44:24;;;;;;;15.27;11.32;;;8.10;99.90;;;;;;4990015;28;20061;-79
2023/10/19 03:46:54;;;;;;;16.15;11.05;;;8.60;99.90;;;;;;4974048;28;21570;-82
2023/10/19 03:49:20;;;;;;;15.02;10.48;;;8.10;99.90;;;;;;4971202;28;20139;-82
2023/10/19 03:51:58;;;;;;;15.60;10.75;;;8.10;99.90;;;;;;4975051;28;20085;-82
2023/10/19 03:54:26;;;;;;;13.65;9.77;;;8.20;99.90;;;;;;4990869;28;20156;-79
2023/10/19 03:56:53;;;;;;;15.48;10.32;;;8.20;99.90;;;;;;4974548;28;20045;-80
2023/10/19 03:59:20;;;;;;;16.17;10.45;;;8.20;99.90;;;;;;4990401;28;20116;-81
2023/10/19 04:01:46;;;;;;;14.10;10.48;;;8.20;99.90;;;;;;4973757;28;20338;-82
2023/10/19 04:04:11;;;;;;;14.23;10.68;;;8.20;99.90;;;;;;4990813;28;20442;-82
2023/10/19 04:06:37;;;;;;;15.75;11.00;;;8.20;99.90;;;;;;4989437;28;20096;-83
2023/10/19 04:09:06;;;;;;;14.50;10.27;;;8.20;99.90;;;;;;4992850;28;20153;-82
2023/10/19 04:11:44;;;;;;;13.85;9.70;;;8.20;99.90;;;;;;4976137;28;20479;-83
2023/10/19 04:14:10;;;;;;;15.00;10.18;;;8.40;99.90;;;;;;4991373;28;20811;-80
2023/10/19 04:16:37;;;;;;;13.38;9.85;;;8.20;99.90;;;;;;4947393;28;1270528;-82
2023/10/19 04:19:04;;;;;;;13.45;9.82;;;8.20;99.90;;;;;;4976053;28;20042;-82
2023/10/19 04:21:30;;;;;;;13.75;9.82;;;8.30;99.90;;;;;;4992276;28;20564;-84
2023/10/19 04:23:56;;;;;;;13.55;9.80;;;8.30;99.90;;;;;;4992291;28;20041;-84
2023/10/19 04:26:24;;;;;;;14.18;9.93;;;8.30;99.90;;;;;;4991725;28;20045;-84
2023/10/19 04:28:50;;;;;;;13.55;9.80;;;8.20;99.90;;;;;;4988471;28;20038;-82
2023/10/19 04:31:18;;;;;;;13.25;9.70;;;8.30;99.90;;;;;;4974246;28;20116;-84
2023/10/19 04:33:47;;;;;;;12.77;9.18;;;8.30;99.90;;;;;;4991661;28;20050;-83
2023/10/19 04:36:14;;;;;;;13.65;9.07;;;8.50;99.90;;;;;;4990576;28;20038;-85
2023/10/19 04:38:40;;;;;;;13.45;9.25;;;8.30;99.90;;;;;;4985481;28;20144;-86
2023/10/19 04:41:07;;;;;;;13.93;8.65;;;8.30;99.90;;;;;;4974256;28;20117;-83
2023/10/19 04:43:39;;;;;;;12.05;8.20;;;8.30;99.90;;;;;;4982877;28;20481;-85
2023/10/19 04:46:12;;;;;;;12.65;9.15;;;8.30;99.90;;;;;;4975744;28;20073;-84
2023/10/19 04:48:39;;;;;;;12.57;9.07;;;8.30;99.90;;;;;;4973563;28;20136;-84
2023/10/19 04:51:07;;;;;;;12.68;8.80;;;8.30;99.90;;;;;;4989823;28;20065;-83
2023/10/19 04:53:33;;;;;;;11.70;8.32;;;8.40;99.90;;;;;;4975698;28;20046;-82
2023/10/19 04:56:00;;;;;;;12.02;8.68;;;8.30;99.90;;;;;;4989552;28;20049;-85
2023/10/19 04:58:27;;;;;;;12.50;8.65;;;8.70;99.90;;;;;;4990712;28;20310;-84
2023/10/19 05:00:53;;;;;;;10.93;8.10;;;8.50;99.90;;;;;;4990467;28;20544;-83
2023/10/19 05:03:19;;;;;;;12.38;8.27;;;8.40;99.90;;;;;;4991083;28;20050;-82
2023/10/19 05:05:45;;;;;;;10.68;7.63;;;8.70;99.90;;;;;;4990856;28;20053;-83
2023/10/19 05:08:11;;;;;;;11.73;7.45;;;8.40;99.90;;;;;;4988582;28;20666;-84
2023/10/19 05:10:37;;;;;;;10.77;6.97;;;8.40;99.90;;;;;;4973825;28;20350;-83
2023/10/19 05:13:03;;;;;;;9.70;6.95;;;8.40;99.90;;;;;;4975190;28;20527;-83
2023/10/19 05:15:29;;;;;;;11.93;7.78;;;8.40;99.90;;;;;;4987740;28;20048;-83
2023/10/19 05:17:56;;;;;;;10.60;7.40;;;8.40;99.90;;;;;;4973575;28;20045;-84
2023/10/19 05:20:21;;;;;;;10.80;7.50;;;8.40;99.90;;;;;;4989454;28;20117;-84
2023/10/19 05:22:47;;;;;;;10.20;6.88;;;8.40;99.90;;;;;;4985050;28;20176;-83
2023/10/19 05:25:13;;;;;;;9.32;6.15;;;8.40;99.90;;;;;;4988510;28;20569;-81
2023/10/19 05:27:39;;;;;;;9.57;6.53;;;8.40;99.90;;;;;;4985445;28;20567;-82
2023/10/19 05:30:06;;;;;;;9.77;6.13;;;8.40;99.90;;;;;;4991540;28;20125;-84
2023/10/19 05:32:33;;;;;;;8.77;5.82;;;8.40;99.90;;;;;;4994332;28;20038;-86
2023/10/19 05:35:04;;;;;;;9.15;6.05;;;8.60;99.90;;;;;;4982260;28;20046;-83
2023/10/19 05:37:30;;;;;;;9.40;5.90;;;8.40;99.90;;;;;;4990247;28;20168;-83
2023/10/19 05:39:56;;;;;;;7.93;5.38;;;8.40;99.90;;;;;;4973737;28;20099;-84
2023/10/19 05:42:22;;;;;;;8.85;5.57;;;8.60;99.90;;;;;;4976055;28;20120;-81
2023/10/19 05:44:47;;;;;;;8.15;5.55;;;8.40;99.90;;;;;;4984488;28;20049;-83
2023/10/19 05:47:13;;;;;;;7.88;5.35;;;8.40;99.90;;;;;;4981773;28;20046;-83
2023/10/19 05:49:39;;;;;;;7.70;4.80;;;8.40;99.90;;;;;;4971317;28;20038;-83
2023/10/19 05:52:05;;;;;;;7.70;4.60;;;8.40;99.90;;;;;;4968533;28;20046;-83
2023/10/19 05:54:31;;;;;;;7.47;4.93;;;8.40;99.90;;;;;;4972965;28;20117;-86
2023/10/19 05:56:57;;;;;;;7.18;4.43;;;8.50;99.90;;;;;;4977410;28;20069;-84
2023/10/19 05:59:26;;;;;;;7.10;4.75;;;8.50;99.90;;;;;;4979369;28;20451;-82
2023/10/19 06:01:52;;;;;;;7.28;4.80;;;8.40;99.90;;;;;;4964646;28;20569;-82
2023/10/19 06:04:20;;;;;;;7.05;4.60;;;8.40;99.90;;;;;;4979680;28;20088;-85
2023/10/19 06:06:47;;;;;;;6.97;4.65;;;8.40;99.90;;;;;;4959008;28;20072;-83
2023/10/19 06:09:18;;;;;;;7.00;4.43;;;8.40;99.90;;;;;;4965276;28;20395;-84
2023/10/19 06:11:44;;;;;;;7.35;4.70;;;8.40;99.90;;;;;;4967170;28;20112;-82
2023/10/19 06:14:09;;;;;;;7.18;4.60;;;8.50;99.90;;;;;;4978769;28;20049;-83
2023/10/19 06:16:36;;;;;;;7.30;4.88;;;8.40;99.90;;;;;;4961237;28;20128;-82
2023/10/19 06:19:02;;;;;;;7.28;4.50;;;8.70;99.90;;;;;;4988054;28;20136;-81
2023/10/19 06:21:30;;;;;;;7.13;4.50;;;8.50;99.90;;;;;;4992167;28;20368;-83
2023/10/19 06:23:55;;;;;;;7.68;4.70;;;8.40;99.90;;;;;;4974536;28;20041;-84
2023/10/19 06:26:21;;;;;;;6.95;4.30;;;8.50;99.90;;;;;;4977941;28;20053;-81
2023/10/19 06:28:47;;;;;;;7.45;4.50;;;8.50;99.90;;;;;;4978026;28;21405;-82
2023/10/19 06:31:14;;;;;;;6.95;4.55;;;8.50;99.90;;;;;;4977041;28;20041;-84
2023/10/19 06:33:41;;;;;;;6.80;4.30;;;8.50;99.90;;;;;;4977444;28;20052;-84
2023/10/19 06:36:07;;;;;;;6.25;3.83;;;8.50;99.90;;;;;;4967916;28;20139;-83
2023/10/19 06:38:32;;;;;;;6.65;3.95;;;8.40;99.90;;;;;;4978415;28;20527;-82
2023/10/19 06:41:02;;;;;;;6.50;3.95;;;8.70;99.90;;;;;;4965075;28;20107;-82
2023/10/19 06:43:30;;;;;;;6.18;3.83;;;8.40;99.90;;;;;;4974112;28;20084;-83
2023/10/19 06:45:56;;;;;;;6.28;3.78;;;8.50;99.90;;;;;;4963484;28;20050;-83
2023/10/19 06:48:22;;;;;;;6.43;3.75;;;8.50;99.90;;;;;;4969132;28;20099;-86
2023/10/19 06:50:47;;;;;;;6.15;3.47;;;8.50;99.90;;;;;;4984836;28;20479;-85
2023/10/19 06:53:13;;;;;;;7.82;3.80;;;8.50;99.90;;;;;;4984406;28;20039;-82
2023/10/19 06:55:40;;;;;;;6.45;3.90;;;8.50;99.90;;;;;;4963593;28;21082;-83
2023/10/19 06:58:06;;;;;;;6.03;3.25;;;8.50;99.90;;;;;;4965953;28;20048;-83
2023/10/19 07:00:33;;;;;;;5.97;3.47;;;8.50;99.90;;;;;;4977469;28;20688;-84
2023/10/19 07:03:03;;;;;;;6.10;3.60;;;8.50;99.90;;;;;;4961046;28;20077;-83
2023/10/19 07:05:32;;;;;;;6.32;3.72;;;8.60;99.90;;;;;;4963918;28;20494;-85
2023/10/19 07:07:59;;;;;;;5.82;3.47;;;8.50;99.90;;;;;;4979671;28;20147;-83
2023/10/19 07:10:27;;;;;;;13.40;3.83;;;8.50;99.90;;;;;;4963126;28;20129;-83
2023/10/19 07:12:55;;;;;;;5.80;3.38;;;8.80;99.90;;;;;;4989054;28;20120;-84
2023/10/19 07:15:22;;;;;;;6.05;3.40;;;8.60;99.90;;;;;;4989910;28;20045;-85
2023/10/19 07:17:56;;;;;;;5.63;3.25;;;8.60;99.90;;;;;;4988440;28;20045;-82
2023/10/19 07:20:31;;;;;;;5.57;3.17;;;8.60;99.90;;;;;;4977734;28;20136;-85
2023/10/19 07:25:48;;;;;;;4.70;2.80;;;8.60;99.90;;;;;;4972058;28;20065;-86
2023/10/19 07:28:14;;;;;;;5.78;2.88;;;8.60;99.90;;;;;;4974137;28;20498;-87
2023/10/19 07:30:41;;;;;;;4.88;2.80;;;8.60;99.90;;;;;;4977728;28;20045;-81
2023/10/19 07:33:09;;;;;;;6.43;2.88;;;8.60;99.90;;;;;;4988757;28;20044;-82
2023/10/19 07:35:42;;;;;;;4.75;2.63;;;8.60;99.90;;;;;;4981769;28;20043;-81
2023/10/19 07:38:08;;;;;;;4.70;2.85;;;9.10;99.90;;;;;;4963432;28;20042;-83
2023/10/19 07:40:35;;;;;;;5.35;3.13;;;8.60;99.90;;;;;;4968063;28;20050;-81
2023/10/19 07:43:01;;;;;;;5.00;2.72;;;8.60;99.90;;;;;;4967407;28;20046;-83
2023/10/19 07:45:27;;;;;;;5.32;2.97;;;8.60;99.90;;;;;;4966263;28;20045;-85
2023/10/19 07:47:53;;;;;;;5.03;2.72;;;8.60;99.90;;;;;;4991613;28;20046;-83
2023/10/19 07:50:19;;;;;;;5.57;2.90;;;8.60;99.90;;;;;;4988982;28;20072;-83
2023/10/19 07:52:53;;;;;;;5.40;2.75;;;8.60;99.90;;;;;;4970730;28;20050;-83
2023/10/19 07:55:23;;;;;;;5.43;2.88;;;8.70;99.90;;;;;;4969914;28;20046;-83
2023/10/19 07:57:52;;;;;;;5.63;3.20;;;8.60;99.90;;;;;;4968816;28;20448;-84
2023/10/19 08:00:20;;;;;;;5.28;2.78;;;8.70;99.90;;;;;;4986579;28;20136;-82
2023/10/19 08:02:46;;;;;;;5.15;2.75;;;8.70;99.90;;;;;;4982118;28;20057;-82
2023/10/19 08:05:18;;;;;;;5.20;2.80;;;8.70;99.90;;;;;;4980967;28;20469;-83
2023/10/19 08:07:45;;;;;;;5.00;2.90;;;8.70;99.90;;;;;;4987682;28;20533;-83
2023/10/19 08:10:15;;;;;;;5.57;2.95;;;8.70;99.90;;;;;;4965742;28;20153;-83
2023/10/19 08:12:41;;;;;;;5.35;2.95;;;8.70;99.90;;;;;;4985011;28;20061;-77
2023/10/19 08:15:11;;;;;;;5.13;3.00;;;8.70;99.90;;;;;;4981120;28;20095;-77
2023/10/19 08:17:40;;;;;;;5.60;3.38;;;8.70;99.90;;;;;;4974830;28;20050;-76
2023/10/19 08:20:32;;;;;;;4.85;2.75;;;8.70;99.90;;;;;;4969939;28;20052;-77
2023/10/19 08:23:01;;;;;;;5.85;3.10;;;8.70;99.90;;;;;;4988936;28;20050;-77
2023/10/19 08:25:27;;;;;;;5.03;2.80;;;8.80;99.90;;;;;;4987297;28;20054;-76
2023/10/19 08:27:56;;;;;;;5.90;3.55;;;8.80;99.90;;;;;;4983229;28;20053;-77
2023/10/19 08:30:22;;;;;;;5.70;3.45;;;8.80;99.90;;;;;;4972343;28;20052;-77
2023/10/19 08:32:49;;;;;;;6.35;3.75;;;8.80;99.90;;;;;;4974079;28;20042;-77
2023/10/19 08:35:25;;;;;;;5.60;3.35;;;8.80;99.90;;;;;;4972617;28;20049;-77
2023/10/19 08:37:52;;;;;;;5.78;3.40;;;8.80;99.90;;;;;;4986664;28;20050;-78
2023/10/19 08:40:19;;;;;;;6.05;3.40;;;8.80;99.90;;;;;;4970810;28;20501;-78
2023/10/19 08:42:46;;;;;;;5.30;3.20;;;8.80;99.90;;;;;;4988091;28;20052;-77
2023/10/19 08:45:12;;;;;;;6.28;3.83;;;9.00;99.90;;;;;;4969330;28;20048;-78
2023/10/19 08:48:00;;;;;;;6.32;4.10;;;8.90;99.90;;;;;;4985032;28;20053;-77
2023/10/19 08:50:31;;;;;;;6.65;3.75;;;8.80;99.90;;;;;;4981308;28;20059;-77
2023/10/19 08:52:59;;;;;;;6.33;3.83;;;8.90;99.90;;;;;;4971303;28;20041;-78
2023/10/19 08:55:26;;;;;;;6.75;3.55;;;8.90;99.90;;;;;;4965447;28;20305;-77
2023/10/19 08:57:52;;;;;;;6.68;3.75;;;8.90;99.90;;;;;;4962356;28;20049;-76
2023/10/19 09:00:19;;;;;;;6.97;3.80;;;8.90;99.90;;;;;;4999360;28;20046;-77
2023/10/19 09:02:45;;;;;;;10.00;4.15;;;8.90;99.90;;;;;;4942260;28;20145;-76
2023/10/19 09:05:33;;;;;;;6.43;3.95;;;9.40;99.90;;;;;;4965631;28;20083;-77
2023/10/19 09:07:59;;;;;;;6.93;3.88;;;8.90;99.90;;;;;;4980216;28;20058;-77
2023/10/19 09:10:27;;;;;;;7.70;4.15;;;9.40;99.90;;;;;;4971051;28;20081;-77
2023/10/19 09:13:07;;;;;;;10.38;4.78;;;9.00;99.90;;;;;;4969513;28;20089;-76
2023/10/19 09:15:35;;;;;;;8.05;5.13;;;9.00;99.90;;;;;;4987726;28;20808;-77
2023/10/19 09:18:22;;;;;;;7.28;4.85;;;9.10;99.90;;;;;;4976986;28;20080;-85
2023/10/19 09:20:52;;;;;;;7.63;4.82;;;9.00;99.90;;;;;;4994760;28;20584;-85
2023/10/19 09:23:28;;;;;;;8.70;4.57;;;9.00;99.90;;;;;;4992127;28;20045;-85
2023/10/19 09:25:57;;;;;;;7.35;4.70;;;9.00;99.90;;;;;;4977317;28;20054;-84
2023/10/19 09:28:24;;;;;;;11.05;5.03;;;9.00;99.90;;;;;;4974285;28;20060;-82
2023/10/19 09:30:51;;;;;;;9.73;5.13;;;9.10;99.90;;;;;;4977923;28;20038;-85
2023/10/19 09:33:24;;;;;;;10.55;5.55;;;9.10;99.90;;;;;;4987663;28;20045;-84
2023/10/19 09:35:56;;;;;;;8.07;4.97;;;9.10;99.90;;;;;;4989567;28;20060;-85
2023/10/19 09:38:22;;;;;;;9.52;5.45;;;9.10;99.90;;;;;;4972801;28;20145;-84
2023/10/19 09:40:49;;;;;;;9.63;5.25;;;9.10;99.90;;;;;;4968028;28;20592;-84
2023/10/19 09:43:22;;;;;;;10.38;5.32;;;9.20;99.90;;;;;;4986838;28;20042;-85
2023/10/19 09:45:53;;;;;;;8.07;4.63;;;9.10;99.90;;;;;;4962352;28;20077;-84
2023/10/19 09:48:19;;;;;;;10.57;5.00;;;9.10;99.90;;;;;;4971129;28;20050;-85
2023/10/19 09:50:58;;;;;;;8.70;5.07;;;9.60;99.90;;;;;;4969737;28;20045;-85
2023/10/19 09:53:26;;;;;;;8.18;4.65;;;9.60;99.90;;;;;;4979895;28;20658;-85
2023/10/19 09:55:57;;;;;;;8.70;4.75;;;9.10;99.90;;;;;;4995297;28;20050;-85
2023/10/19 09:58:48;;;;;;;10.20;5.63;;;9.20;99.90;;;;;;4986046;28;20045;-84
2023/10/19 10:01:15;;;;;;;10.30;5.47;;;9.60;99.90;;;;;;4982032;28;20062;-85
2023/10/19 10:03:45;;;;;;;13.38;6.45;;;9.30;99.90;;;;;;4977517;28;20049;-86
2023/10/19 10:06:17;;;;;;;12.45;5.55;;;9.20;99.90;;;;;;4990611;28;20046;-86
2023/10/19 10:08:48;;;;;;;10.10;5.25;;;9.50;99.90;;;;;;4966774;28;20048;-83
2023/10/19 10:11:17;;;;;;;11.65;6.45;;;9.20;99.90;;;;;;4986255;28;20265;-85
2023/10/19 10:13:50;;;;;;;10.45;5.72;;;9.30;99.90;;;;;;4965677;28;20045;-86
2023/10/19 10:16:25;;;;;;;10.63;5.70;;;9.60;99.90;;;;;;4970122;28;20042;-85
2023/10/19 10:19:00;;;;;;;11.88;6.60;;;9.30;99.90;;;;;;4966447;28;20449;-85
2023/10/19 10:21:28;;;;;;;9.68;5.80;;;9.30;99.90;;;;;;4972630;28;20053;-84
2023/10/19 10:23:56;;;;;;;9.80;5.97;;;9.20;99.90;;;;;;4983328;28;20044;-84
2023/10/19 10:26:26;;;;;;;11.27;6.35;;;9.30;99.90;;;;;;5000254;28;20414;-85
2023/10/19 10:29:23;;;;;;;11.07;6.70;;;9.30;99.90;;;;;;4990638;28;20176;-84
2023/10/19 10:31:50;;;;;;;11.65;6.30;;;9.30;99.90;;;;;;4962383;28;20136;-85
2023/10/19 10:34:37;;;;;;;9.95;5.82;;;9.80;99.90;;;;;;4969307;28;20552;-85
2023/10/19 10:37:08;;;;;;;11.85;6.25;;;9.40;99.90;;;;;;4981094;28;20137;-85
2023/10/19 10:39:37;;;;;;;12.20;5.87;;;9.60;99.90;;;;;;4978045;28;20050;-84
2023/10/19 10:42:05;;;;;;;11.80;6.30;;;9.40;99.90;;;;;;4968637;28;20292;-84
2023/10/19 10:44:44;;;;;;;9.45;5.28;;;9.40;99.90;;;;;;4976829;28;20121;-85
2023/10/19 10:47:21;;;;;;;17.88;6.10;;;9.40;99.90;;;;;;4988597;28;20375;-86
2023/10/19 10:49:59;;;;;;;12.50;5.75;;;9.40;99.90;;;;;;4985315;28;20461;-84
2023/10/19 10:52:33;;;;;;;10.40;6.10;;;9.40;99.90;;;;;;4967568;28;20042;-85
2023/10/19 10:55:07;;;;;;;11.05;6.10;;;9.40;99.90;;;;;;4986427;28;20179;-84
2023/10/19 10:57:34;;;;;;;10.35;6.10;;;9.40;99.90;;;;;;4974610;28;20046;-84
2023/10/19 11:00:07;;;;;;;13.30;6.40;;;9.40;99.90;;;;;;4990623;28;20562;-84
2023/10/19 11:02:35;;;;;;;11.27;6.00;;;9.50;99.90;;;;;;4973805;28;20092;-80
2023/10/19 11:05:01;;;;;;;12.30;6.30;;;9.40;99.90;;;;;;4965382;28;20119;-80
2023/10/19 11:07:27;;;;;;;11.88;6.35;;;9.70;99.90;;;;;;4970487;28;20042;-80
2023/10/19 11:09:53;;;;;;;12.40;5.68;;;9.50;99.90;;;;;;4977284;28;20069;-80
2023/10/19 11:12:19;;;;;;;10.77;6.85;;;9.40;99.90;;;;;;4983466;28;20100;-80
2023/10/19 11:14:59;;;;;;;11.45;6.18;;;9.50;99.90;;;;;;4984353;28;20050;-79
2023/10/19 11:17:30;;;;;;;13.93;6.03;;;9.70;99.90;;;;;;4979795;28;20046;-79
2023/10/19 11:19:57;;;;;;;11.27;6.10;;;9.80;99.90;;;;;;4987096;28;20350;-83
2023/10/19 11:22:26;;;;;;;11.98;6.53;;;9.50;99.90;;;;;;4984978;28;20143;-83
2023/10/19 11:25:15;;;;;;;11.20;7.18;;;9.50;99.90;;;;;;4975863;28;20053;-84
2023/10/19 11:27:41;;;;;;;12.13;6.25;;;9.50;99.90;;;;;;4981558;28;20041;-84
2023/10/19 11:30:08;;;;;;;10.00;6.32;;;9.50;99.90;;;;;;4983067;28;20116;-85
2023/10/19 11:32:38;;;;;;;12.10;6.78;;;9.50;99.90;;;;;;4973483;28;20042;-85
2023/10/19 11:35:04;;;;;;;16.65;6.75;;;9.60;99.90;;;;;;4972511;28;20616;-84
2023/10/19 11:37:30;;;;;;;11.70;5.97;;;9.50;99.90;;;;;;4985853;28;20053;-83
2023/10/19 11:39:56;;;;;;;9.30;6.22;;;9.80;99.90;;;;;;4996622;28;20053;-84
2023/10/19 11:42:21;;;;;;;12.40;7.07;;;9.50;99.90;;;;;;4998556;28;20148;-84
2023/10/19 11:44:48;;;;;;;11.45;6.13;;;9.50;99.90;;;;;;4990946;28;20080;-83
2023/10/19 11:47:14;;;;;;;10.90;5.93;;;9.50;99.90;;;;;;4994210;28;20060;-85
2023/10/19 11:49:40;;;;;;;10.40;6.18;;;9.40;99.90;;;;;;4984254;28;20053;-85
2023/10/19 11:52:09;;;;;;;9.82;5.43;;;9.50;99.90;;;;;;4974460;28;20450;-84
2023/10/19 11:54:35;;;;;;;9.82;6.22;;;9.50;99.90;;;;;;4975150;28;20054;-85
2023/10/19 11:57:01;;;;;;;10.68;6.70;;;9.50;99.90;;;;;;4984771;28;20046;-85
2023/10/19 11:59:27;;;;;;;11.18;6.28;;;9.50;99.90;;;;;;4972311;28;20116;-83
2023/10/19 12:01:54;;;;;;;10.68;6.53;;;9.50;99.90;;;;;;4988821;28;20085;-83
2023/10/19 12:04:23;;;;;;;9.98;5.78;;;9.50;99.90;;;;;;4972712;28;20454;-85
2023/10/19 12:06:48;;;;;;;10.68;6.95;;;9.50;99.90;;;;;;4971862;28;20141;-85
2023/10/19 12:09:14;;;;;;;10.73;5.80;;;9.60;99.90;;;;;;4970128;28;20141;-81
2023/10/19 12:11:44;;;;;;;11.43;5.93;;;9.60;99.90;;;;;;4968308;28;20049;-84
2023/10/19 12:14:14;;;;;;;10.20;6.07;;;9.80;99.90;;;;;;4961608;28;20058;-82
2023/10/19 12:16:40;;;;;;;9.07;6.22;;;9.60;99.90;;;;;;4978953;28;20050;-82
2023/10/19 12:19:07;;;;;;;13.82;6.70;;;9.60;99.90;;;;;;4974979;28;20056;-83
2023/10/19 12:21:37;;;;;;;12.82;7.10;;;9.60;99.90;;;;;;4972365;28;20042;-79
2023/10/19 12:24:04;;;;;;;12.40;7.03;;;9.60;99.90;;;;;;4972856;28;20125;-76
2023/10/19 12:26:30;;;;;;;14.18;7.93;;;9.60;99.90;;;;;;4970081;28;20054;-76
2023/10/19 12:28:56;;;;;;;16.63;9.02;;;9.70;99.90;;;;;;4982087;28;20041;-78
2023/10/19 12:31:23;;;;;;;12.63;8.43;;;9.60;99.90;;;;;;4984863;28;20395;-82
2023/10/19 12:33:49;;;;;;;16.80;9.13;;;9.70;99.90;;;;;;4983243;28;20046;-85
2023/10/19 12:36:31;;;;;;;12.98;9.15;;;9.60;99.90;;;;;;4972167;28;20060;-83
2023/10/19 12:38:57;;;;;;;13.23;9.30;;;9.70;99.90;;;;;;4985471;28;20506;-84
2023/10/19 12:41:27;;;;;;;20.23;10.65;;;9.60;99.90;;;;;;4974927;28;20139;-84
2023/10/19 12:44:07;;;;;;;19.02;9.98;;;9.70;99.90;;;;;;4986587;28;20049;-86
2023/10/19 12:46:36;;;;;;;15.38;9.55;;;9.70;99.90;;;;;;4982844;28;20050;-81
2023/10/19 12:49:13;;;;;;;14.45;9.05;;;9.60;99.90;;;;;;4986213;28;20458;-84
2023/10/19 12:51:42;;;;;;;15.02;8.23;;;9.60;99.90;;;;;;4980276;28;20044;-82
2023/10/19 12:54:10;;;;;;;13.68;8.25;;;9.60;99.90;;;;;;4993113;28;20141;-85
2023/10/19 12:56:36;;;;;;;13.20;8.43;;;9.60;99.90;;;;;;4986149;28;20050;-84
2023/10/19 12:59:01;;;;;;;14.60;8.75;;;9.70;99.90;;;;;;4987361;28;20050;-84
2023/10/19 13:01:28;;;;;;;15.38;9.18;;;9.60;99.90;;;;;;4989907;28;20045;-84
2023/10/19 13:03:53;;;;;;;14.15;8.40;;;9.60;99.90;;;;;;4974032;28;20164;-83
2023/10/19 13:06:19;;;;;;;13.43;8.82;;;9.60;99.90;;;;;;4968974;28;20077;-84
2023/10/19 13:08:46;;;;;;;17.52;8.93;;;9.50;99.90;;;;;;4973119;28;20549;-82
2023/10/19 13:11:14;;;;;;;16.80;8.65;;;9.60;99.90;;;;;;4990295;28;20068;-85
2023/10/19 13:13:40;;;;;;;14.85;9.32;;;9.70;99.90;;;;;;4973177;28;20457;-84